Time;durP1;ratioP1;P1;durP2;ratioP2;P2;SDS_P1;SDS_P2;PMS_P1;PMS_P2;Temp;Humidity;BMP_temperature;BMP_pressure;BME280_temperature;BME280_humidity;BME280_pressure;Samples;Min_cycle;Max_cycle;Signal;HPM_P1;HPM_P2
2023/01/28 00:00:11;;;;;;;15.80;2.72;;;20.70;34.70;;;;;;5102467;28;20120;-69
2023/01/28 00:02:37;;;;;;;10.85;2.08;;;20.60;34.50;;;;;;5102357;28;20150;-70
2023/01/28 00:05:04;;;;;;;14.75;2.83;;;20.60;34.70;;;;;;5105772;28;20071;-67
2023/01/28 00:07:30;;;;;;;14.35;2.97;;;20.50;34.20;;;;;;5101964;28;20072;-67
2023/01/28 00:09:56;;;;;;;12.75;2.13;;;20.50;34.80;;;;;;5107720;28;20050;-68
2023/01/28 00:12:23;;;;;;;11.60;3.90;;;20.40;35.20;;;;;;5107516;28;20067;-68
2023/01/28 00:14:49;;;;;;;12.30;4.22;;;20.40;35.10;;;;;;5107784;28;20070;-67
2023/01/28 00:17:16;;;;;;;10.50;3.13;;;20.30;33.90;;;;;;5105679;28;20098;-66
2023/01/28 00:19:43;;;;;;;16.80;2.83;;;20.30;33.80;;;;;;5107794;28;20048;-68
2023/01/28 00:22:10;;;;;;;11.23;2.97;;;20.20;34.00;;;;;;5107258;28;20041;-67
2023/01/28 00:24:36;;;;;;;15.95;3.03;;;20.10;35.10;;;;;;5106308;28;20040;-66
2023/01/28 00:27:03;;;;;;;19.15;2.47;;;20.10;35.90;;;;;;5103637;28;20057;-68
2023/01/28 00:29:29;;;;;;;18.15;4.75;;;20.10;36.00;;;;;;5099337;28;20057;-64
2023/01/28 00:31:55;;;;;;;17.95;6.68;;;19.90;34.10;;;;;;5101091;28;20073;-66
2023/01/28 00:34:22;;;;;;;21.20;5.72;;;19.90;33.10;;;;;;5097031;28;20043;-65
2023/01/28 00:36:56;;;;;;;18.35;5.78;;;19.80;33.00;;;;;;5099959;28;20521;-66
2023/01/28 00:39:26;;;;;;;16.45;3.03;;;19.80;35.30;;;;;;5106544;28;20070;-65
2023/01/28 00:41:53;;;;;;;20.13;2.60;;;19.60;35.80;;;;;;5108650;28;20046;-64
2023/01/28 00:44:20;;;;;;;23.35;3.40;;;19.40;37.30;;;;;;5106812;28;20150;-65
2023/01/28 00:46:46;;;;;;;13.95;2.78;;;19.30;34.10;;;;;;5107198;28;20525;-64
2023/01/28 00:49:13;;;;;;;19.75;2.50;;;19.30;36.70;;;;;;5106887;28;20499;-67
2023/01/28 00:51:39;;;;;;;14.35;5.97;;;19.20;36.60;;;;;;5109815;28;20064;-67
2023/01/28 00:54:06;;;;;;;7.78;1.90;;;19.00;35.60;;;;;;5108629;28;20593;-68
2023/01/28 00:56:32;;;;;;;19.90;2.38;;;18.90;37.10;;;;;;5102526;28;20086;-65
2023/01/28 00:58:59;;;;;;;11.45;2.78;;;18.70;36.80;;;;;;5101463;28;20108;-66
2023/01/28 01:01:26;;;;;;;16.33;2.75;;;18.60;36.80;;;;;;5101301;28;20060;-64
2023/01/28 01:04:01;;;;;;;9.48;2.55;;;18.40;37.70;;;;;;5101949;28;20051;-65
2023/01/28 01:06:39;;;;;;;15.48;5.28;;;18.30;36.90;;;;;;5104374;28;20527;-68
2023/01/28 01:09:09;;;;;;;11.85;3.20;;;18.20;37.60;;;;;;5101371;28;20063;-65
2023/01/28 01:11:36;;;;;;;8.73;2.45;;;18.00;37.60;;;;;;5100896;28;20086;-65
2023/01/28 01:14:04;;;;;;;12.60;2.83;;;17.90;37.10;;;;;;5106331;28;20061;-66
2023/01/28 01:16:32;;;;;;;26.92;3.28;;;17.70;38.60;;;;;;5104784;28;20099;-66
2023/01/28 01:18:59;;;;;;;13.82;3.55;;;17.60;38.80;;;;;;5106443;28;20064;-66
2023/01/28 01:21:27;;;;;;;24.77;4.45;;;17.50;39.00;;;;;;5105893;28;20068;-66
2023/01/28 01:23:54;;;;;;;26.30;4.95;;;17.30;38.20;;;;;;5106468;28;20149;-66
2023/01/28 01:26:20;;;;;;;18.17;5.00;;;17.20;39.70;;;;;;5105760;28;20076;-67
2023/01/28 01:28:47;;;;;;;30.30;7.20;;;17.10;39.70;;;;;;5104693;28;20061;-66
2023/01/28 01:31:16;;;;;;;29.48;7.32;;;17.00;39.80;;;;;;5101830;28;20137;-65
2023/01/28 01:33:45;;;;;;;40.33;7.65;;;16.90;40.10;;;;;;5100359;28;20147;-65
2023/01/28 01:36:14;;;;;;;35.45;8.73;;;16.80;40.60;;;;;;5090928;28;20406;-65
2023/01/28 01:38:41;;;;;;;26.05;7.18;;;16.60;40.50;;;;;;5102584;28;20584;-68
2023/01/28 01:41:09;;;;;;;44.42;7.38;;;16.50;40.60;;;;;;5101968;28;20138;-66
2023/01/28 01:43:49;;;;;;;40.90;8.27;;;16.50;41.40;;;;;;5104008;28;20123;-67
2023/01/28 01:46:19;;;;;;;47.95;10.57;;;16.30;41.60;;;;;;5104732;28;20084;-68
2023/01/28 01:48:46;;;;;;;39.90;10.32;;;16.20;42.00;;;;;;5103506;28;20072;-68
2023/01/28 01:51:18;;;;;;;42.30;10.15;;;16.10;42.50;;;;;;5102448;28;20062;-67
2023/01/28 01:53:50;;;;;;;37.25;11.45;;;16.10;42.90;;;;;;5105903;28;20068;-68
2023/01/28 01:56:21;;;;;;;40.70;10.05;;;15.90;42.90;;;;;;5097678;28;20086;-69
2023/01/28 01:58:51;;;;;;;39.50;11.20;;;15.80;42.90;;;;;;5101181;28;20108;-69
2023/01/28 02:01:21;;;;;;;54.80;13.00;;;15.80;43.70;;;;;;5104575;28;20517;-67
2023/01/28 02:04:02;;;;;;;49.53;11.45;;;15.70;44.10;;;;;;5101649;28;20107;-69
2023/01/28 02:06:31;;;;;;;53.22;10.93;;;15.60;45.10;;;;;;5104801;28;20083;-69
2023/01/28 02:08:58;;;;;;;58.53;12.55;;;15.60;46.30;;;;;;5103100;28;20602;-69
2023/01/28 02:11:30;;;;;;;51.97;12.35;;;15.50;45.30;;;;;;5105321;28;20062;-67
2023/01/28 02:14:00;;;;;;;44.72;12.82;;;15.30;44.70;;;;;;5101763;28;20064;-68
2023/01/28 02:16:28;;;;;;;52.67;14.38;;;15.30;46.20;;;;;;5107088;28;20103;-68
2023/01/28 02:18:54;;;;;;;52.38;16.05;;;15.20;45.70;;;;;;5105938;28;20065;-67
2023/01/28 02:21:48;;;;;;;49.55;14.23;;;15.10;45.70;;;;;;5104959;28;20542;-69
2023/01/28 02:24:56;;;;;;;86.05;15.32;;;15.10;45.50;;;;;;5106873;28;20068;-69
2023/01/28 02:27:55;;;;;;;56.60;17.42;;;14.90;45.10;;;;;;5105541;28;20070;-68
2023/01/28 02:30:28;;;;;;;65.18;15.45;;;14.90;46.00;;;;;;5102703;28;20067;-68
2023/01/28 02:33:05;;;;;;;58.97;14.90;;;15.80;47.30;;;;;;5102738;28;20143;-68
2023/01/28 02:35:40;;;;;;;66.40;14.63;;;16.30;46.60;;;;;;5103153;28;20075;-67
2023/01/28 02:38:15;;;;;;;63.05;15.57;;;16.50;45.70;;;;;;5097511;28;20139;-67
2023/01/28 02:43:40;;;;;;;63.05;13.75;;;16.80;45.50;;;;;;5102746;28;20073;-65
2023/01/28 02:49:44;;;;;;;73.18;15.25;;;16.80;45.00;;;;;;5104414;28;20080;-67
2023/01/28 02:55:38;;;;;;;73.57;16.98;;;16.80;45.70;;;;;;5104380;28;20075;-64
2023/01/28 02:58:36;;;;;;;81.90;17.98;;;16.50;44.40;;;;;;5100233;28;20174;-65
2023/01/28 03:01:23;;;;;;;83.55;18.27;;;16.40;44.80;;;;;;5102658;28;20536;-66
2023/01/28 03:03:56;;;;;;;93.72;19.90;;;16.40;44.70;;;;;;5100022;28;20076;-65
2023/01/28 03:06:38;;;;;;;85.47;20.85;;;16.50;45.00;;;;;;5103007;28;20084;-67
2023/01/28 03:09:23;;;;;;;79.93;19.95;;;16.40;45.10;;;;;;5101068;28;20119;-64
2023/01/28 03:37:54;;;;;;;101.50;22.95;;;15.50;48.40;;;;;;5092211;28;20099;-65
2023/01/28 03:40:20;;;;;;;122.30;23.83;;;15.40;48.30;;;;;;5096633;28;20139;-66
2023/01/28 03:42:47;;;;;;;;;;;15.40;49.00;;;;;;5103048;28;20068;-65
2023/01/28 03:45:14;;;;;;;107.45;24.92;;;15.30;49.00;;;;;;5108073;28;20019;-63
2023/01/28 03:47:40;;;;;;;100.70;25.08;;;15.30;48.30;;;;;;5107724;28;20080;-64
2023/01/28 03:50:07;;;;;;;111.32;25.95;;;15.20;48.00;;;;;;5107964;28;20094;-66
2023/01/28 03:52:34;;;;;;;129.70;26.35;;;15.00;47.90;;;;;;5108122;28;20095;-65
2023/01/28 03:55:00;;;;;;;130.70;27.67;;;14.90;48.20;;;;;;5107142;28;20090;-65
2023/01/28 03:57:30;;;;;;;131.10;28.73;;;14.90;48.80;;;;;;5108054;28;20070;-65
2023/01/28 03:59:56;;;;;;;130.80;27.85;;;14.80;48.80;;;;;;5104709;28;20076;-65
2023/01/28 04:02:24;;;;;;;;;;;14.80;49.30;;;;;;5107688;28;20480;-65
2023/01/28 04:04:50;;;;;;;146.65;27.10;;;14.80;50.50;;;;;;5104639;28;19965;-64
2023/01/28 04:07:17;;;;;;;147.70;30.23;;;14.70;49.90;;;;;;5109141;28;20072;-64
2023/01/28 04:09:44;;;;;;;133.93;29.45;;;14.50;49.20;;;;;;5104321;28;20070;-64
2023/01/28 04:12:10;;;;;;;161.15;33.40;;;14.40;49.00;;;;;;5106678;28;20084;-65
2023/01/28 04:14:38;;;;;;;154.90;34.45;;;14.20;49.30;;;;;;5105714;28;20067;-65
2023/01/28 04:17:06;;;;;;;157.68;36.33;;;14.20;50.10;;;;;;5106524;28;20064;-65
2023/01/28 04:19:35;;;;;;;180.68;36.53;;;14.10;50.20;;;;;;5107142;28;20098;-65
2023/01/28 04:22:09;;;;;;;135.23;34.97;;;14.20;51.10;;;;;;5108065;28;20559;-65
2023/01/28 04:24:35;;;;;;;148.18;34.83;;;14.20;51.80;;;;;;5106440;28;20204;-66
2023/01/28 04:27:02;;;;;;;;;;;14.10;51.70;;;;;;5108553;28;20162;-65
2023/01/28 04:29:28;;;;;;;133.18;36.35;;;14.00;51.30;;;;;;5107316;28;21438;-65
2023/01/28 04:31:55;;;;;;;;;;;13.90;51.30;;;;;;5107669;28;20065;-67
2023/01/28 04:34:21;;;;;;;169.15;39.85;;;13.80;51.60;;;;;;5108876;28;20871;-65
2023/01/28 04:36:47;;;;;;;;;;;13.80;52.30;;;;;;5108591;28;20070;-66
2023/01/28 04:39:14;;;;;;;143.93;37.97;;;13.70;52.60;;;;;;5099497;28;20462;-67
2023/01/28 04:41:40;;;;;;;137.27;37.05;;;13.70;53.20;;;;;;5104856;28;20525;-68
2023/01/28 04:44:06;;;;;;;;;;;13.60;52.90;;;;;;5105693;28;20068;-66
2023/01/28 04:46:33;;;;;;;179.60;43.55;;;13.60;53.20;;;;;;5105890;28;19990;-66
2023/01/28 04:48:59;;;;;;;;;;;13.60;54.40;;;;;;5106012;28;20146;-65
2023/01/28 04:51:26;;;;;;;186.93;42.35;;;13.70;54.70;;;;;;5106638;28;19980;-65
2023/01/28 04:53:52;;;;;;;;;;;13.70;54.90;;;;;;5101455;28;20074;-65
2023/01/28 04:56:18;;;;;;;160.80;38.67;;;13.60;54.50;;;;;;5105376;28;19961;-68
2023/01/28 04:58:44;;;;;;;156.40;39.17;;;13.50;54.10;;;;;;5105349;28;20107;-67
2023/01/28 05:01:10;;;;;;;;;;;13.50;54.30;;;;;;5106518;28;20151;-63
2023/01/28 05:03:37;;;;;;;163.75;41.17;;;13.40;54.50;;;;;;5107682;28;20031;-63
2023/01/28 05:06:03;;;;;;;;;;;13.40;53.90;;;;;;5105712;28;20103;-63
2023/01/28 05:08:30;;;;;;;169.27;39.33;;;13.30;54.60;;;;;;5105601;28;19962;-66
2023/01/28 05:10:57;;;;;;;129.15;36.42;;;13.30;55.10;;;;;;5107318;28;20151;-63
2023/01/28 05:13:23;;;;;;;;;;;13.30;55.10;;;;;;5106801;28;20114;-64
2023/01/28 05:15:52;;;;;;;133.30;32.33;;;13.20;55.20;;;;;;5103204;28;19955;-67
2023/01/28 05:18:19;;;;;;;150.55;33.72;;;13.10;54.40;;;;;;5106014;28;20073;-63
2023/01/28 05:20:45;;;;;;;128.52;32.30;;;13.20;54.30;;;;;;5104675;28;20083;-65
2023/01/28 05:23:11;;;;;;;;;;;13.20;54.70;;;;;;5107392;28;20085;-64
2023/01/28 05:25:37;;;;;;;130.48;31.13;;;13.10;54.70;;;;;;5104569;28;19973;-63
2023/01/28 05:28:03;;;;;;;;;;;13.10;54.00;;;;;;5106112;28;20088;-64
2023/01/28 05:30:30;;;;;;;134.88;32.20;;;13.10;54.40;;;;;;5106874;28;20449;-64
2023/01/28 05:32:56;;;;;;;;;;;13.00;55.20;;;;;;5104324;28;20068;-70
2023/01/28 05:35:23;;;;;;;141.75;37.15;;;12.80;54.90;;;;;;5110524;28;20112;-66
2023/01/28 05:37:50;;;;;;;152.55;38.40;;;12.80;54.70;;;;;;5102335;28;20064;-66
2023/01/28 05:40:17;;;;;;;145.98;36.58;;;12.70;55.00;;;;;;5096081;28;20428;-65
2023/01/28 05:42:43;;;;;;;128.93;34.38;;;12.70;55.10;;;;;;5105856;28;20099;-68
2023/01/28 05:45:10;;;;;;;137.63;33.38;;;12.60;54.90;;;;;;5103727;28;20111;-66
2023/01/28 05:47:37;;;;;;;114.32;29.92;;;12.70;55.20;;;;;;5104564;28;20085;-63
2023/01/28 05:50:03;;;;;;;123.18;28.80;;;12.60;55.10;;;;;;5104487;28;20452;-66
2023/01/28 05:52:30;;;;;;;138.05;28.63;;;12.50;54.90;;;;;;5100050;28;20132;-66
2023/01/28 05:54:56;;;;;;;;;;;12.50;54.30;;;;;;5105100;28;20078;-64
2023/01/28 05:57:22;;;;;;;115.88;36.17;;;12.50;53.40;;;;;;5105801;28;19963;-65
2023/01/28 05:59:49;;;;;;;113.30;26.00;;;12.40;53.30;;;;;;5103697;28;20127;-64
2023/01/28 06:02:15;;;;;;;;;;;12.40;53.10;;;;;;5102872;28;20086;-64
2023/01/28 06:04:41;;;;;;;109.10;25.83;;;12.40;53.70;;;;;;5109773;28;19951;-65
2023/01/28 06:07:07;;;;;;;;;;;12.40;54.20;;;;;;5103256;28;20079;-64
2023/01/28 06:09:34;;;;;;;104.43;25.45;;;12.40;54.60;;;;;;5105142;28;20003;-63
2023/01/28 06:12:00;;;;;;;;;;;12.30;54.40;;;;;;5103436;28;20067;-63
2023/01/28 06:14:26;;;;;;;124.65;31.42;;;12.20;54.30;;;;;;5102906;28;19966;-67
2023/01/28 06:16:52;;;;;;;;;;;12.20;55.20;;;;;;5104193;28;20150;-65
2023/01/28 06:19:18;;;;;;;138.25;29.02;;;12.20;54.00;;;;;;5105129;28;20025;-65
2023/01/28 06:21:44;;;;;;;;;;;12.10;53.70;;;;;;5105175;28;20071;-64
2023/01/28 06:24:11;;;;;;;123.95;28.80;;;12.10;53.50;;;;;;5105580;28;19959;-66
2023/01/28 06:26:38;;;;;;;121.10;28.25;;;12.00;54.30;;;;;;5104878;28;20460;-64
2023/01/28 06:29:04;;;;;;;;;;;12.00;55.50;;;;;;5104655;28;20063;-64
2023/01/28 06:31:31;;;;;;;121.60;30.73;;;12.00;55.50;;;;;;5106935;28;19987;-66
2023/01/28 06:33:57;;;;;;;130.63;30.50;;;11.80;56.20;;;;;;5104829;28;20094;-67
2023/01/28 06:36:23;;;;;;;;;;;11.80;54.90;;;;;;5104446;28;20537;-64
2023/01/28 06:38:50;;;;;;;108.20;28.58;;;11.80;55.50;;;;;;5103881;28;19955;-65
2023/01/28 06:41:16;;;;;;;127.18;29.65;;;11.80;56.20;;;;;;5097068;28;20071;-67
2023/01/28 06:43:42;;;;;;;;;;;11.80;57.10;;;;;;5103332;28;20542;-65
2023/01/28 06:46:09;;;;;;;133.93;33.72;;;11.70;56.90;;;;;;5103892;28;19974;-66
2023/01/28 06:48:35;;;;;;;;;;;11.60;56.20;;;;;;5101173;28;20163;-65
2023/01/28 06:51:01;;;;;;;141.77;37.05;;;11.50;55.40;;;;;;5101475;28;20005;-66
2023/01/28 06:53:27;;;;;;;;;;;11.50;56.20;;;;;;5102785;28;20067;-64
2023/01/28 06:55:54;;;;;;;146.18;36.00;;;11.50;56.90;;;;;;5104162;28;19988;-65
2023/01/28 06:58:20;;;;;;;;;;;11.40;55.90;;;;;;5105440;28;20107;-65
2023/01/28 07:00:46;;;;;;;138.68;37.95;;;11.40;55.80;;;;;;5104188;28;20069;-67
2023/01/28 07:03:12;;;;;;;;;;;11.30;55.90;;;;;;5101847;28;20156;-65
2023/01/28 07:05:39;;;;;;;143.63;41.63;;;11.20;56.50;;;;;;5108106;28;20074;-66
2023/01/28 07:08:05;;;;;;;155.32;37.28;;;11.20;56.50;;;;;;5104008;28;20078;-66
2023/01/28 07:10:31;;;;;;;142.32;37.33;;;11.20;56.50;;;;;;5101958;28;20070;-65
2023/01/28 07:12:58;;;;;;;;;;;11.20;55.80;;;;;;5104376;28;20094;-65
2023/01/28 07:15:24;;;;;;;119.32;34.17;;;11.20;56.00;;;;;;5102910;28;19955;-65
2023/01/28 07:17:50;;;;;;;;;;;11.20;56.60;;;;;;5104317;28;20075;-68
2023/01/28 07:20:16;;;;;;;110.32;31.67;;;11.10;56.40;;;;;;5106036;28;19990;-64
2023/01/28 07:22:44;;;;;;;141.18;32.97;;;11.10;56.80;;;;;;5108445;28;20106;-66
2023/01/28 07:25:12;;;;;;;129.00;31.98;;;11.10;57.30;;;;;;5106553;28;20145;-66
2023/01/28 07:27:38;;;;;;;113.22;31.08;;;11.10;57.50;;;;;;5108514;28;20064;-65
2023/01/28 07:30:05;;;;;;;116.38;30.27;;;11.00;58.40;;;;;;5107082;28;20547;-65
2023/01/28 07:32:31;;;;;;;100.60;27.80;;;11.00;58.20;;;;;;5103780;28;20074;-64
2023/01/28 07:34:57;;;;;;;;;;;10.80;58.20;;;;;;5103891;28;20067;-65
2023/01/28 07:37:24;;;;;;;112.60;29.77;;;10.70;58.80;;;;;;5103779;28;20336;-65
2023/01/28 07:39:51;;;;;;;112.88;29.75;;;10.60;58.70;;;;;;5100981;28;20090;-64
2023/01/28 07:42:17;;;;;;;108.35;29.40;;;10.60;58.40;;;;;;5092965;28;20074;-63
2023/01/28 07:44:43;;;;;;;;;;;10.60;58.20;;;;;;5102233;28;20409;-65
2023/01/28 07:47:10;;;;;;;101.70;28.17;;;10.50;59.10;;;;;;5105435;28;19986;-67
2023/01/28 07:49:38;;;;;;;107.70;29.92;;;10.40;60.20;;;;;;5102993;28;20071;-65
2023/01/28 07:52:05;;;;;;;94.40;29.52;;;10.30;59.70;;;;;;5102732;28;20064;-65
2023/01/28 07:54:32;;;;;;;103.00;30.95;;;10.30;60.70;;;;;;5103130;28;20143;-64
2023/01/28 07:56:58;;;;;;;;;;;10.40;59.90;;;;;;5101518;28;20119;-63
2023/01/28 07:59:24;;;;;;;116.45;32.42;;;10.40;59.30;;;;;;5099051;28;19991;-67
2023/01/28 08:01:51;;;;;;;;;;;10.30;59.40;;;;;;5103137;28;20509;-66
2023/01/28 08:04:18;;;;;;;141.85;36.97;;;10.30;60.30;;;;;;5103312;28;19955;-66
2023/01/28 08:06:45;;;;;;;138.75;38.35;;;10.20;60.40;;;;;;5100815;28;20119;-67
2023/01/28 08:09:11;;;;;;;133.32;38.15;;;10.20;60.70;;;;;;5102260;28;20531;-66
2023/01/28 08:11:38;;;;;;;157.07;46.88;;;10.20;60.20;;;;;;5102408;28;20090;-65
2023/01/28 08:14:05;;;;;;;139.18;43.63;;;10.20;60.50;;;;;;5103036;28;20116;-66
2023/01/28 08:16:32;;;;;;;130.45;44.00;;;10.20;60.30;;;;;;5100945;28;20070;-65
2023/01/28 08:18:58;;;;;;;152.90;45.47;;;10.10;59.60;;;;;;5102247;28;20087;-66
2023/01/28 08:21:24;;;;;;;;;;;10.10;59.50;;;;;;5101157;28;20121;-65
2023/01/28 08:23:50;;;;;;;146.75;42.80;;;10.10;59.70;;;;;;5098613;28;20423;-66
2023/01/28 08:26:17;;;;;;;;;;;10.20;60.60;;;;;;5102068;28;20623;-65
2023/01/28 08:28:43;;;;;;;137.45;45.97;;;10.10;58.70;;;;;;5099733;28;19994;-66
2023/01/28 08:31:09;;;;;;;;;;;10.20;58.30;;;;;;5105862;28;20479;-66
2023/01/28 08:33:35;;;;;;;126.03;43.88;;;10.20;57.60;;;;;;5101032;28;19959;-66
2023/01/28 08:36:03;;;;;;;;;;;10.20;58.50;;;;;;5104003;28;20065;-65
2023/01/28 08:38:29;;;;;;;106.57;38.28;;;10.30;58.60;;;;;;5102699;28;19955;-66
2023/01/28 08:40:56;;;;;;;;;;;10.20;58.10;;;;;;5103613;28;20140;-67
2023/01/28 08:43:23;;;;;;;102.88;34.35;;;10.20;58.80;;;;;;5093811;28;19957;-65
2023/01/28 08:45:49;;;;;;;101.22;34.20;;;10.30;58.60;;;;;;5102830;28;20169;-64
2023/01/28 08:48:16;;;;;;;;;;;10.20;58.70;;;;;;5102773;28;20091;-65
2023/01/28 08:50:44;;;;;;;108.72;32.65;;;10.20;60.00;;;;;;5100276;28;19959;-68
2023/01/28 08:53:18;;;;;;;105.30;34.97;;;10.20;59.40;;;;;;5101396;28;20552;-65
2023/01/28 08:55:45;;;;;;;118.18;41.90;;;10.20;59.80;;;;;;5099569;28;20513;-62
2023/01/28 08:58:17;;;;;;;116.65;43.60;;;10.20;59.30;;;;;;5101276;28;20111;-65
2023/01/28 09:00:44;;;;;;;115.85;41.85;;;10.20;59.40;;;;;;5103306;28;20067;-66
2023/01/28 09:03:11;;;;;;;121.93;41.08;;;10.10;59.80;;;;;;5101520;28;20154;-66
2023/01/28 09:05:38;;;;;;;105.00;38.67;;;10.00;60.00;;;;;;5104803;27;20087;-62
2023/01/28 09:08:06;;;;;;;115.10;40.60;;;10.00;59.70;;;;;;5102024;28;20076;-67
2023/01/28 09:10:33;;;;;;;110.00;38.75;;;9.90;60.00;;;;;;5098840;27;20072;-65
2023/01/28 09:13:05;;;;;;;120.53;39.00;;;9.90;60.10;;;;;;5102916;28;20074;-65
2023/01/28 09:15:32;;;;;;;96.85;30.05;;;9.90;60.30;;;;;;5098800;28;20213;-65
2023/01/28 09:17:59;;;;;;;106.53;31.40;;;10.00;60.50;;;;;;5101953;28;20067;-64
2023/01/28 09:20:26;;;;;;;97.68;28.85;;;10.00;60.90;;;;;;5102422;28;20162;-65
2023/01/28 09:22:53;;;;;;;77.63;29.17;;;9.90;60.80;;;;;;5099789;28;20466;-65
2023/01/28 09:25:19;;;;;;;95.00;30.23;;;9.70;62.40;;;;;;5096658;28;20091;-65
2023/01/28 09:27:46;;;;;;;96.03;30.75;;;9.50;62.40;;;;;;5099504;28;20078;-66
2023/01/28 09:30:12;;;;;;;114.43;30.38;;;9.50;62.50;;;;;;5096591;28;20124;-63
2023/01/28 09:32:39;;;;;;;102.85;41.10;;;9.50;61.50;;;;;;5099130;28;20068;-66
2023/01/28 09:35:05;;;;;;;;;;;9.60;61.90;;;;;;5105535;27;20417;-66
2023/01/28 09:37:31;;;;;;;115.35;40.30;;;9.50;62.80;;;;;;5100608;28;19963;-67
2023/01/28 09:39:57;;;;;;;;;;;9.30;62.40;;;;;;5097284;28;20067;-65
2023/01/28 09:42:39;;;;;;;112.93;34.45;;;9.10;64.10;;;;;;5098717;28;20009;-65
2023/01/28 09:45:30;;;;;;;96.22;31.38;;;9.10;63.70;;;;;;5092856;28;20126;-66
2023/01/28 09:48:00;;;;;;;108.90;32.22;;;9.00;63.90;;;;;;5115251;27;20087;-65
2023/01/28 09:50:38;;;;;;;89.15;29.67;;;8.90;64.10;;;;;;5100768;28;20073;-66
2023/01/28 09:53:36;;;;;;;94.05;31.45;;;9.10;64.10;;;;;;5099846;28;20090;-66
2023/01/28 09:56:08;;;;;;;97.53;30.27;;;9.00;63.70;;;;;;5102339;28;20095;-65
2023/01/28 09:58:35;;;;;;;102.05;30.80;;;9.10;64.00;;;;;;5099205;28;20108;-67
2023/01/28 10:01:04;;;;;;;;;;;9.20;64.80;;;;;;5101064;28;20158;-65
2023/01/28 10:03:48;;;;;;;87.47;30.40;;;9.20;65.10;;;;;;5101369;27;20317;-66
2023/01/28 10:06:25;;;;;;;92.13;30.85;;;9.20;64.10;;;;;;5100249;28;20546;-66
2023/01/28 10:09:00;;;;;;;90.97;28.60;;;9.20;64.10;;;;;;5097603;28;20084;-65
2023/01/28 10:11:45;;;;;;;80.72;29.42;;;9.20;65.60;;;;;;5096643;28;20071;-68
2023/01/28 10:14:23;;;;;;;70.95;29.23;;;9.10;64.00;;;;;;5098008;28;20162;-65
2023/01/28 10:17:34;;;;;;;89.47;29.45;;;8.90;64.30;;;;;;5101208;28;20078;-66
2023/01/28 10:20:19;;;;;;;89.25;27.55;;;9.00;66.20;;;;;;5098867;28;20436;-64
2023/01/28 10:23:03;;;;;;;98.78;28.15;;;9.10;64.80;;;;;;5097757;28;20087;-68
2023/01/28 10:25:32;;;;;;;79.40;26.20;;;9.00;65.20;;;;;;5101978;28;20091;-66
2023/01/28 10:28:01;;;;;;;70.05;25.67;;;9.00;64.80;;;;;;5097158;28;20170;-65
2023/01/28 10:30:33;;;;;;;76.13;24.85;;;8.80;65.10;;;;;;5096507;28;20079;-67
2023/01/28 10:33:18;;;;;;;71.18;23.95;;;8.80;64.80;;;;;;5100251;28;20681;-65
2023/01/28 10:35:44;;;;;;;72.35;23.25;;;8.80;65.60;;;;;;5103426;28;20076;-68
2023/01/28 10:38:13;;;;;;;;;;;8.80;64.60;;;;;;5105207;28;20075;-65
2023/01/28 10:40:41;;;;;;;70.35;22.17;;;8.80;65.10;;;;;;5100607;28;20404;-67
2023/01/28 10:43:08;;;;;;;54.40;19.50;;;8.80;64.20;;;;;;5098908;28;20230;-67
2023/01/28 10:45:41;;;;;;;63.78;18.52;;;8.80;64.60;;;;;;5090305;28;20084;-65
2023/01/28 10:48:25;;;;;;;61.58;19.10;;;8.80;64.40;;;;;;5096351;28;20135;-67
2023/01/28 10:51:01;;;;;;;55.22;19.08;;;8.80;65.10;;;;;;5097271;28;20078;-68
2023/01/28 10:53:41;;;;;;;50.58;16.67;;;8.80;64.00;;;;;;5098700;28;20075;-66
2023/01/28 10:56:17;;;;;;;52.33;16.40;;;8.90;63.60;;;;;;5097441;28;20075;-66
2023/01/28 10:59:04;;;;;;;57.60;16.42;;;8.70;63.20;;;;;;5096590;28;20103;-66
2023/01/28 11:01:48;;;;;;;52.85;16.17;;;8.60;63.90;;;;;;5098157;28;20112;-67
2023/01/28 11:04:35;;;;;;;44.90;15.50;;;8.60;63.80;;;;;;5096499;28;20112;-66
2023/01/28 11:07:15;;;;;;;48.80;14.98;;;8.50;63.10;;;;;;5098877;28;20564;-67
2023/01/28 11:09:46;;;;;;;49.38;14.20;;;8.50;62.70;;;;;;5096957;28;20529;-65
2023/01/28 11:12:22;;;;;;;49.40;15.38;;;8.40;63.10;;;;;;5099561;28;20132;-66
2023/01/28 11:15:03;;;;;;;58.67;15.07;;;8.40;63.40;;;;;;5098352;28;20068;-66
2023/01/28 11:17:36;;;;;;;46.28;15.32;;;8.50;63.70;;;;;;5097730;28;20121;-66
2023/01/28 11:20:20;;;;;;;51.50;16.80;;;8.50;62.70;;;;;;5098703;28;20064;-66
2023/01/28 11:22:47;;;;;;;50.92;15.60;;;8.50;63.20;;;;;;5099333;28;20122;-67
2023/01/28 11:25:22;;;;;;;33.60;14.20;;;8.50;62.60;;;;;;5097725;28;20064;-64
2023/01/28 11:27:50;;;;;;;34.47;13.38;;;8.50;63.10;;;;;;5097775;28;20068;-67
2023/01/28 11:30:32;;;;;;;48.30;15.10;;;8.50;63.60;;;;;;5098985;28;20536;-67
2023/01/28 11:33:23;;;;;;;39.08;13.82;;;8.50;62.70;;;;;;5099346;28;20122;-65
2023/01/28 11:36:05;;;;;;;44.05;14.10;;;8.50;63.30;;;;;;5095451;28;20136;-66
2023/01/28 11:38:32;;;;;;;37.45;13.18;;;8.40;61.60;;;;;;5101046;28;20600;-66
2023/01/28 11:41:02;;;;;;;41.03;15.45;;;8.20;61.10;;;;;;5100688;28;20087;-65
2023/01/28 11:43:30;;;;;;;44.10;14.82;;;8.30;62.30;;;;;;5100272;28;20124;-65
2023/01/28 11:46:33;;;;;;;35.45;13.30;;;8.30;62.10;;;;;;5090344;28;20101;-66
2023/01/28 11:49:20;;;;;;;49.63;14.75;;;8.30;62.50;;;;;;5098361;28;20089;-66
2023/01/28 11:52:20;;;;;;;42.00;13.95;;;8.30;62.50;;;;;;5097531;28;20079;-66
2023/01/28 11:54:55;;;;;;;55.78;14.82;;;8.30;62.30;;;;;;5100348;28;20086;-63
2023/01/28 11:58:00;;;;;;;40.50;14.35;;;8.20;63.10;;;;;;5097357;28;20120;-66
2023/01/28 12:01:11;;;;;;;46.45;15.07;;;8.20;62.50;;;;;;5053659;28;20156;-66
2023/01/28 12:04:06;;;;;;;53.53;15.63;;;8.10;62.80;;;;;;5058032;28;20159;-64
2023/01/28 12:06:39;;;;;;;41.72;15.30;;;8.20;62.70;;;;;;5060611;28;20561;-67
2023/01/28 12:09:41;;;;;;;54.90;16.33;;;7.90;64.50;;;;;;5060546;28;20430;-67
2023/01/28 12:12:14;;;;;;;54.80;15.02;;;8.00;64.40;;;;;;5056815;28;20187;-66
2023/01/28 12:15:08;;;;;;;46.85;16.65;;;8.00;64.20;;;;;;5059105;28;20100;-65
2023/01/28 12:18:06;;;;;;;45.13;14.82;;;8.00;64.40;;;;;;5058534;28;20111;-65
2023/01/28 12:20:39;;;;;;;44.40;15.60;;;8.10;65.00;;;;;;5061787;28;20077;-65
2023/01/28 12:23:12;;;;;;;51.30;17.15;;;7.70;64.00;;;;;;5058598;28;20072;-65
2023/01/28 12:25:49;;;;;;;43.20;14.95;;;7.70;64.60;;;;;;5060109;28;20447;-64
2023/01/28 12:28:43;;;;;;;58.78;17.30;;;7.80;64.60;;;;;;5061803;28;20072;-65
2023/01/28 12:31:39;;;;;;;51.30;16.30;;;7.80;65.10;;;;;;5059284;28;20151;-65
2023/01/28 12:34:20;;;;;;;52.05;16.85;;;7.80;65.40;;;;;;4961911;28;20170;-67
2023/01/28 12:37:05;;;;;;;49.20;16.42;;;7.80;64.10;;;;;;4968275;28;20090;-67
2023/01/28 12:40:04;;;;;;;57.33;16.70;;;7.80;65.10;;;;;;5000510;28;20102;-68
2023/01/28 12:42:49;;;;;;;65.82;18.40;;;7.80;65.90;;;;;;4997881;28;20164;-67
2023/01/28 12:45:22;;;;;;;52.55;17.95;;;7.80;65.30;;;;;;4996349;28;20466;-64
2023/01/28 12:48:05;;;;;;;59.08;19.52;;;7.70;66.30;;;;;;4995949;28;20090;-66
2023/01/28 12:50:37;;;;;;;58.63;18.13;;;7.60;65.70;;;;;;5002335;28;20519;-66
2023/01/28 12:53:36;;;;;;;66.88;18.35;;;7.60;67.00;;;;;;5000351;28;20078;-65
2023/01/28 12:56:22;;;;;;;50.58;17.80;;;7.60;65.70;;;;;;5001290;28;20089;-67
2023/01/28 12:59:00;;;;;;;69.85;20.98;;;7.70;65.60;;;;;;4999857;28;20113;-66
2023/01/28 13:01:57;;;;;;;69.72;18.83;;;7.70;65.90;;;;;;4999929;28;20109;-65
2023/01/28 13:04:44;;;;;;;55.47;19.40;;;7.60;65.30;;;;;;5004387;28;20489;-67
2023/01/28 13:07:32;;;;;;;58.78;20.10;;;7.50;65.50;;;;;;4999346;28;20082;-67
2023/01/28 13:10:21;;;;;;;58.60;18.73;;;7.40;66.70;;;;;;5010297;28;20090;-64
2023/01/28 13:12:49;;;;;;;59.33;18.05;;;7.30;67.70;;;;;;5097586;28;20073;-63
2023/01/28 13:15:18;;;;;;;48.83;19.50;;;7.30;67.90;;;;;;5099816;28;20425;-67
2023/01/28 13:17:55;;;;;;;53.15;19.52;;;7.20;68.00;;;;;;5104108;28;20081;-66
2023/01/28 13:20:48;;;;;;;60.83;19.45;;;7.30;68.60;;;;;;5101099;28;21643;-66
2023/01/28 13:23:40;;;;;;;54.40;19.45;;;7.30;68.20;;;;;;5101994;28;20080;-67
2023/01/28 13:26:18;;;;;;;54.38;18.63;;;7.30;67.90;;;;;;5100253;28;20091;-66
2023/01/28 13:28:49;;;;;;;75.85;21.73;;;7.30;68.00;;;;;;5101305;28;20104;-65
2023/01/28 13:31:21;;;;;;;66.82;21.17;;;7.20;68.90;;;;;;5100527;28;20200;-66
2023/01/28 13:33:55;;;;;;;64.35;20.13;;;7.20;69.40;;;;;;5099960;28;20067;-66
2023/01/28 13:36:29;;;;;;;62.83;21.17;;;7.20;68.10;;;;;;5102587;28;20099;-65
2023/01/28 13:39:03;;;;;;;67.32;20.58;;;7.10;68.10;;;;;;5102097;28;20072;-65
2023/01/28 13:41:49;;;;;;;55.88;20.50;;;7.10;68.90;;;;;;5100406;28;20072;-67